GXA25 KMHR-KMRY
Flight info
| Callsign | GXA25 |
|---|---|
| Flight time | 0h 32m |
| Altitude | 16000 |
| Route | MOD V111 SNS |
| Aircraft | A320/M-SDE3FGHIRWY/LB1 |
Departure
| Time | 2026-05-09 16:14 |
|---|---|
| Airport | Sacramento Mather Airport (KMHR) |
Arrival
| Time | 2026-05-09 16:47 |
|---|---|
| Airport | Monterey Regional Airport (KMRY) |
| Time | Latitude | Longitude | Altitude | Speed | Heading |
|---|---|---|---|---|---|
| 2026-05-09 16:01 | 38.56237 | -121.29655 | 98 ft | 0 kts | 266° |
| 2026-05-09 16:09 | 38.56237 | -121.29658 | 98 ft | 0 kts | 266° |
| 2026-05-09 16:09 | 38.56235 | -121.29681 | 98 ft | 7 kts | 260° |
| 2026-05-09 16:09 | 38.56182 | -121.29755 | 98 ft | 14 kts | 196° |
| 2026-05-09 16:10 | 38.56072 | -121.29748 | 98 ft | 18 kts | 175° |
| 2026-05-09 16:10 | 38.55984 | -121.29787 | 96 ft | 15 kts | 236° |
| 2026-05-09 16:10 | 38.55913 | -121.29912 | 96 ft | 20 kts | 233° |
| 2026-05-09 16:10 | 38.55820 | -121.30072 | 94 ft | 25 kts | 234° |
| 2026-05-09 16:11 | 38.55713 | -121.30259 | 97 ft | 27 kts | 233° |
| 2026-05-09 16:11 | 38.55594 | -121.30465 | 99 ft | 30 kts | 233° |
| 2026-05-09 16:11 | 38.55468 | -121.30682 | 99 ft | 32 kts | 233° |
| 2026-05-09 16:11 | 38.55327 | -121.30926 | 92 ft | 36 kts | 233° |
| 2026-05-09 16:12 | 38.55177 | -121.31187 | 85 ft | 37 kts | 234° |
| 2026-05-09 16:12 | 38.55053 | -121.31401 | 86 ft | 28 kts | 233° |
| 2026-05-09 16:12 | 38.54943 | -121.31593 | 86 ft | 21 kts | 234° |
| 2026-05-09 16:12 | 38.54812 | -121.31644 | 85 ft | 24 kts | 150° |
| 2026-05-09 16:13 | 38.54670 | -121.31513 | 87 ft | 27 kts | 144° |
| 2026-05-09 16:13 | 38.54530 | -121.31336 | 86 ft | 30 kts | 105° |
| 2026-05-09 16:13 | 38.54664 | -121.31014 | 87 ft | 69 kts | 52° |
| 2026-05-09 16:13 | 38.55129 | -121.30211 | 97 ft | 152 kts | 54° |
| 2026-05-09 16:14 | 38.55804 | -121.29019 | 681 ft | 177 kts | 57° |
| 2026-05-09 16:14 | 38.56153 | -121.27494 | 1641 ft | 183 kts | 93° |
| 2026-05-09 16:14 | 38.55727 | -121.25916 | 2451 ft | 202 kts | 127° |
| 2026-05-09 16:14 | 38.54550 | -121.24903 | 3000 ft | 216 kts | 165° |
| 2026-05-09 16:15 | 38.52982 | -121.24471 | 3540 ft | 247 kts | 169° |
| 2026-05-09 16:15 | 38.51208 | -121.23964 | 4453 ft | 266 kts | 166° |
| 2026-05-09 16:15 | 38.49412 | -121.23373 | 5718 ft | 272 kts | 166° |
| 2026-05-09 16:15 | 38.47559 | -121.22742 | 6937 ft | 278 kts | 165° |
| 2026-05-09 16:16 | 38.45658 | -121.22098 | 8108 ft | 285 kts | 166° |
| 2026-05-09 16:16 | 38.43722 | -121.21454 | 9216 ft | 291 kts | 166° |
| 2026-05-09 16:16 | 38.41739 | -121.20807 | 10250 ft | 299 kts | 166° |
| 2026-05-09 16:16 | 38.39638 | -121.20130 | 10764 ft | 324 kts | 166° |
| 2026-05-09 16:17 | 38.37398 | -121.19412 | 11272 ft | 343 kts | 166° |
| 2026-05-09 16:17 | 38.35047 | -121.18658 | 12052 ft | 352 kts | 166° |
| 2026-05-09 16:17 | 38.32648 | -121.17888 | 12871 ft | 357 kts | 166° |
| 2026-05-09 16:17 | 38.30214 | -121.17109 | 13657 ft | 363 kts | 166° |
| 2026-05-09 16:18 | 38.27748 | -121.16325 | 14401 ft | 367 kts | 166° |
| 2026-05-09 16:18 | 38.25277 | -121.15539 | 15098 ft | 372 kts | 166° |
| 2026-05-09 16:18 | 38.22743 | -121.14731 | 15717 ft | 377 kts | 166° |
| 2026-05-09 16:18 | 38.20185 | -121.13917 | 15933 ft | 379 kts | 166° |
| 2026-05-09 16:19 | 38.17594 | -121.13097 | 15990 ft | 391 kts | 166° |
| 2026-05-09 16:19 | 38.14957 | -121.12262 | 15992 ft | 397 kts | 166° |
| 2026-05-09 16:19 | 38.12271 | -121.11411 | 15992 ft | 398 kts | 166° |
| 2026-05-09 16:19 | 38.09574 | -121.10555 | 15992 ft | 398 kts | 166° |
| 2026-05-09 16:20 | 38.06885 | -121.09701 | 15992 ft | 398 kts | 166° |
| 2026-05-09 16:20 | 38.04200 | -121.08849 | 15992 ft | 398 kts | 166° |
| 2026-05-09 16:20 | 38.01512 | -121.07998 | 15992 ft | 398 kts | 166° |
| 2026-05-09 16:20 | 37.98824 | -121.07148 | 15992 ft | 398 kts | 166° |
| 2026-05-09 16:21 | 37.96164 | -121.06307 | 15992 ft | 398 kts | 166° |
| 2026-05-09 16:21 | 37.93479 | -121.05458 | 15991 ft | 398 kts | 166° |
| 2026-05-09 16:21 | 37.90792 | -121.04609 | 15990 ft | 397 kts | 166° |
| 2026-05-09 16:21 | 37.88103 | -121.03763 | 15990 ft | 398 kts | 166° |
| 2026-05-09 16:22 | 37.85414 | -121.02919 | 15991 ft | 398 kts | 166° |
| 2026-05-09 16:22 | 37.82722 | -121.02075 | 15992 ft | 398 kts | 166° |
| 2026-05-09 16:22 | 37.80030 | -121.01228 | 15995 ft | 398 kts | 166° |
| 2026-05-09 16:22 | 37.77384 | -121.00392 | 15998 ft | 398 kts | 166° |
| 2026-05-09 16:23 | 37.74684 | -120.99537 | 15999 ft | 398 kts | 166° |
| 2026-05-09 16:23 | 37.71998 | -120.98691 | 15999 ft | 398 kts | 166° |
| 2026-05-09 16:23 | 37.69309 | -120.97843 | 15998 ft | 398 kts | 166° |
| 2026-05-09 16:23 | 37.66615 | -120.97040 | 15996 ft | 398 kts | 171° |
| 2026-05-09 16:24 | 37.63858 | -120.96821 | 15995 ft | 397 kts | 183° |
| 2026-05-09 16:24 | 37.61132 | -120.97365 | 15996 ft | 397 kts | 195° |
| 2026-05-09 16:24 | 37.58566 | -120.98632 | 15998 ft | 397 kts | 207° |
| 2026-05-09 16:24 | 37.56138 | -121.00286 | 16000 ft | 397 kts | 208° |
| 2026-05-09 16:25 | 37.53735 | -121.01920 | 16002 ft | 397 kts | 208° |
| 2026-05-09 16:25 | 37.51289 | -121.03575 | 16002 ft | 397 kts | 208° |
| 2026-05-09 16:25 | 37.48845 | -121.05222 | 16002 ft | 397 kts | 208° |
| 2026-05-09 16:25 | 37.46412 | -121.06860 | 16002 ft | 397 kts | 208° |
| 2026-05-09 16:26 | 37.43973 | -121.08502 | 16002 ft | 397 kts | 208° |
| 2026-05-09 16:26 | 37.41534 | -121.10143 | 16002 ft | 397 kts | 208° |
| 2026-05-09 16:26 | 37.39128 | -121.11765 | 16002 ft | 397 kts | 208° |
| 2026-05-09 16:26 | 37.36700 | -121.13407 | 16001 ft | 397 kts | 208° |
| 2026-05-09 16:27 | 37.34264 | -121.15050 | 16001 ft | 397 kts | 208° |
| 2026-05-09 16:27 | 37.31825 | -121.16691 | 16001 ft | 397 kts | 208° |
| 2026-05-09 16:27 | 37.29389 | -121.18331 | 16001 ft | 397 kts | 208° |
| 2026-05-09 16:27 | 37.26958 | -121.19967 | 16001 ft | 396 kts | 208° |
| 2026-05-09 16:28 | 37.24522 | -121.21606 | 16001 ft | 397 kts | 208° |
| 2026-05-09 16:28 | 37.22090 | -121.23240 | 16001 ft | 397 kts | 208° |
| 2026-05-09 16:28 | 37.19655 | -121.24872 | 16001 ft | 396 kts | 208° |
| 2026-05-09 16:28 | 37.17213 | -121.26505 | 16000 ft | 396 kts | 208° |
| 2026-05-09 16:29 | 37.14809 | -121.28115 | 16001 ft | 396 kts | 208° |
| 2026-05-09 16:29 | 37.12362 | -121.29754 | 16001 ft | 396 kts | 208° |
| 2026-05-09 16:29 | 37.09916 | -121.31396 | 16000 ft | 396 kts | 208° |
| 2026-05-09 16:29 | 37.07514 | -121.33007 | 16002 ft | 397 kts | 208° |
| 2026-05-09 16:30 | 37.05081 | -121.34634 | 16002 ft | 397 kts | 208° |
| 2026-05-09 16:30 | 37.02636 | -121.36265 | 16003 ft | 397 kts | 208° |
| 2026-05-09 16:30 | 37.00188 | -121.37895 | 16004 ft | 397 kts | 208° |
| 2026-05-09 16:30 | 36.97750 | -121.39517 | 16005 ft | 397 kts | 208° |
| 2026-05-09 16:31 | 36.95310 | -121.41140 | 16002 ft | 394 kts | 208° |
| 2026-05-09 16:31 | 36.92916 | -121.42730 | 15240 ft | 390 kts | 208° |
| 2026-05-09 16:31 | 36.90550 | -121.44301 | 14338 ft | 383 kts | 208° |
| 2026-05-09 16:31 | 36.88267 | -121.45814 | 13705 ft | 365 kts | 208° |
| 2026-05-09 16:32 | 36.86027 | -121.47301 | 13056 ft | 361 kts | 208° |
| 2026-05-09 16:32 | 36.84557 | -121.48279 | 12627 ft | 359 kts | 208° |
| 2026-05-09 16:32 | 36.81657 | -121.50203 | 11758 ft | 354 kts | 208° |
| 2026-05-09 16:32 | 36.79489 | -121.51641 | 11094 ft | 350 kts | 208° |
| 2026-05-09 16:33 | 36.77348 | -121.53061 | 10451 ft | 345 kts | 208° |
| 2026-05-09 16:33 | 36.75291 | -121.54425 | 10275 ft | 328 kts | 208° |
| 2026-05-09 16:33 | 36.73325 | -121.55726 | 10146 ft | 311 kts | 208° |
| 2026-05-09 16:33 | 36.71453 | -121.56963 | 9887 ft | 300 kts | 208° |
| 2026-05-09 16:34 | 36.69622 | -121.58175 | 9716 ft | 295 kts | 209° |
| 2026-05-09 16:34 | 36.67976 | -121.59688 | 9588 ft | 294 kts | 226° |
| 2026-05-09 16:34 | 36.66785 | -121.61758 | 9112 ft | 297 kts | 244° |
| 2026-05-09 16:34 | 36.66215 | -121.64177 | 8644 ft | 293 kts | 262° |
| 2026-05-09 16:35 | 36.66078 | -121.66703 | 7908 ft | 288 kts | 266° |
| 2026-05-09 16:35 | 36.65973 | -121.69181 | 7284 ft | 287 kts | 266° |
| 2026-05-09 16:35 | 36.65867 | -121.71659 | 6801 ft | 284 kts | 266° |
| 2026-05-09 16:35 | 36.65759 | -121.74123 | 6240 ft | 284 kts | 266° |
| 2026-05-09 16:36 | 36.65652 | -121.76560 | 5776 ft | 280 kts | 266° |
| 2026-05-09 16:36 | 36.65327 | -121.83607 | 3758 ft | 271 kts | 266° |
| 2026-05-09 16:37 | 36.65217 | -121.85935 | 3273 ft | 268 kts | 266° |
| 2026-05-09 16:37 | 36.65113 | -121.88184 | 3148 ft | 250 kts | 266° |
| 2026-05-09 16:37 | 36.65017 | -121.90277 | 3076 ft | 233 kts | 266° |
| 2026-05-09 16:37 | 36.64925 | -121.92243 | 2985 ft | 223 kts | 266° |
| 2026-05-09 16:38 | 36.64834 | -121.94138 | 2890 ft | 221 kts | 266° |
| 2026-05-09 16:38 | 36.64741 | -121.96046 | 2792 ft | 220 kts | 266° |
| 2026-05-09 16:38 | 36.64649 | -121.97953 | 2694 ft | 220 kts | 266° |
| 2026-05-09 16:38 | 36.64557 | -121.99853 | 2597 ft | 219 kts | 266° |
| 2026-05-09 16:39 | 36.64452 | -122.01759 | 2507 ft | 218 kts | 261° |
| 2026-05-09 16:39 | 36.63859 | -122.03445 | 2510 ft | 218 kts | 227° |
| 2026-05-09 16:39 | 36.62639 | -122.04557 | 2510 ft | 218 kts | 212° |
| 2026-05-09 16:39 | 36.61448 | -122.05727 | 2505 ft | 218 kts | 229° |
| 2026-05-09 16:40 | 36.60808 | -122.07393 | 2509 ft | 218 kts | 260° |
| 2026-05-09 16:40 | 36.60903 | -122.09263 | 2509 ft | 219 kts | 288° |
| 2026-05-09 16:42 | 36.65888 | -122.05780 | 2515 ft | 191 kts | 114° |
| 2026-05-09 16:42 | 36.65374 | -122.04254 | 2511 ft | 191 kts | 114° |
| 2026-05-09 16:42 | 36.64867 | -122.02746 | 2510 ft | 191 kts | 114° |
| 2026-05-09 16:42 | 36.64364 | -122.01250 | 2531 ft | 179 kts | 114° |
| 2026-05-09 16:43 | 36.63917 | -121.99917 | 2482 ft | 155 kts | 114° |
| 2026-05-09 16:43 | 36.63521 | -121.98738 | 2358 ft | 141 kts | 114° |
| 2026-05-09 16:43 | 36.63148 | -121.97630 | 2205 ft | 136 kts | 114° |
| 2026-05-09 16:43 | 36.62788 | -121.96561 | 2040 ft | 134 kts | 114° |
| 2026-05-09 16:44 | 36.62428 | -121.95492 | 1868 ft | 133 kts | 114° |
| 2026-05-09 16:44 | 36.62071 | -121.94430 | 1694 ft | 132 kts | 114° |
| 2026-05-09 16:44 | 36.61834 | -121.93728 | 1581 ft | 132 kts | 114° |
| 2026-05-09 16:44 | 36.61479 | -121.92675 | 1403 ft | 132 kts | 114° |
| 2026-05-09 16:45 | 36.61126 | -121.91628 | 1229 ft | 131 kts | 114° |
| 2026-05-09 16:45 | 36.60776 | -121.90581 | 1044 ft | 131 kts | 114° |
| 2026-05-09 16:45 | 36.60319 | -121.89191 | 824 ft | 130 kts | 114° |
| 2026-05-09 16:45 | 36.60082 | -121.88499 | 716 ft | 130 kts | 115° |
| 2026-05-09 16:46 | 36.59726 | -121.87460 | 533 ft | 130 kts | 114° |
| 2026-05-09 16:46 | 36.59375 | -121.86429 | 346 ft | 129 kts | 114° |
| 2026-05-09 16:46 | 36.59025 | -121.85396 | 204 ft | 128 kts | 114° |
| 2026-05-09 16:46 | 36.58733 | -121.84538 | 217 ft | 72 kts | 113° |
| 2026-05-09 16:47 | 36.58611 | -121.84177 | 231 ft | 20 kts | 112° |
| 2026-05-09 16:47 | 36.58526 | -121.84159 | 233 ft | 17 kts | 240° |
| 2026-05-09 16:47 | 36.58562 | -121.84319 | 228 ft | 23 kts | 293° |
| 2026-05-09 16:47 | 36.58623 | -121.84496 | 223 ft | 20 kts | 292° |
| 2026-05-09 16:48 | 36.58696 | -121.84674 | 215 ft | 27 kts | 297° |
| 2026-05-09 16:48 | 36.58756 | -121.84849 | 206 ft | 23 kts | 291° |
| 2026-05-09 16:48 | 36.58814 | -121.85018 | 198 ft | 19 kts | 295° |
| 2026-05-09 16:48 | 36.58859 | -121.85152 | 192 ft | 14 kts | 287° |
| 2026-05-09 16:49 | 36.58884 | -121.85272 | 187 ft | 10 kts | 291° |
| 2026-05-09 16:49 | 36.58911 | -121.85351 | 183 ft | 12 kts | 292° |
| 2026-05-09 16:49 | 36.58944 | -121.85449 | 179 ft | 9 kts | 293° |
| 2026-05-09 16:50 | 36.58910 | -121.85501 | 179 ft | 5 kts | 104° |
| 2026-05-09 16:50 | 36.58909 | -121.85494 | 179 ft | 0 kts | 102° |